sensor_id;sensor_type;location;lat;lon;timestamp;temperature;humidity
16829;DHT22;8531;48.078;11.968;2023-08-07T00:00:41;12.30;99.90
16829;DHT22;8531;48.078;11.968;2023-08-07T00:03:06;12.30;99.90
16829;DHT22;8531;48.078;11.968;2023-08-07T00:05:32;12.30;99.90
16829;DHT22;8531;48.078;11.968;2023-08-07T00:07:58;12.30;99.90
16829;DHT22;8531;48.078;11.968;2023-08-07T00:10:23;12.30;99.90
16829;DHT22;8531;48.078;11.968;2023-08-07T00:12:50;12.30;99.90
16829;DHT22;8531;48.078;11.968;2023-08-07T00:15:15;12.30;99.90
16829;DHT22;8531;48.078;11.968;2023-08-07T00:17:41;12.30;99.90
16829;DHT22;8531;48.078;11.968;2023-08-07T00:20:07;12.30;99.90
16829;DHT22;8531;48.078;11.968;2023-08-07T00:22:33;12.30;99.90
16829;DHT22;8531;48.078;11.968;2023-08-07T00:24:59;12.30;99.90
16829;DHT22;8531;48.078;11.968;2023-08-07T00:27:25;12.30;99.90
16829;DHT22;8531;48.078;11.968;2023-08-07T00:29:51;12.30;99.90
16829;DHT22;8531;48.078;11.968;2023-08-07T00:32:17;12.30;99.90
16829;DHT22;8531;48.078;11.968;2023-08-07T00:34:42;12.20;99.90
16829;DHT22;8531;48.078;11.968;2023-08-07T00:37:08;12.20;99.90
16829;DHT22;8531;48.078;11.968;2023-08-07T00:39:34;12.20;99.90
16829;DHT22;8531;48.078;11.968;2023-08-07T00:41:59;12.10;99.90
16829;DHT22;8531;48.078;11.968;2023-08-07T00:44:25;12.10;99.90
16829;DHT22;8531;48.078;11.968;2023-08-07T00:46:51;12.10;99.90
16829;DHT22;8531;48.078;11.968;2023-08-07T00:49:17;12.00;99.90
16829;DHT22;8531;48.078;11.968;2023-08-07T00:51:44;11.90;99.90
16829;DHT22;8531;48.078;11.968;2023-08-07T00:54:12;11.80;99.90
16829;DHT22;8531;48.078;11.968;2023-08-07T00:56:40;11.70;99.90
16829;DHT22;8531;48.078;11.968;2023-08-07T00:59:06;11.70;99.90
16829;DHT22;8531;48.078;11.968;2023-08-07T01:01:32;11.60;99.90
16829;DHT22;8531;48.078;11.968;2023-08-07T01:03:58;11.60;99.90
16829;DHT22;8531;48.078;11.968;2023-08-07T01:06:24;11.50;99.90
16829;DHT22;8531;48.078;11.968;2023-08-07T01:08:50;11.50;99.90
16829;DHT22;8531;48.078;11.968;2023-08-07T01:11:24;11.40;99.90
16829;DHT22;8531;48.078;11.968;2023-08-07T01:17:06;11.40;99.90
16829;DHT22;8531;48.078;11.968;2023-08-07T01:19:34;11.40;99.90
16829;DHT22;8531;48.078;11.968;2023-08-07T01:22:06;11.30;99.90
16829;DHT22;8531;48.078;11.968;2023-08-07T01:24:33;11.20;99.90
16829;DHT22;8531;48.078;11.968;2023-08-07T01:27:07;11.20;99.90
16829;DHT22;8531;48.078;11.968;2023-08-07T01:32:24;11.10;99.90
16829;DHT22;8531;48.078;11.968;2023-08-07T01:34:50;11.10;99.90
16829;DHT22;8531;48.078;11.968;2023-08-07T01:37:17;11.10;99.90
16829;DHT22;8531;48.078;11.968;2023-08-07T01:39:45;11.10;99.90
16829;DHT22;8531;48.078;11.968;2023-08-07T01:42:12;11.00;99.90
16829;DHT22;8531;48.078;11.968;2023-08-07T01:44:37;11.00;99.90
16829;DHT22;8531;48.078;11.968;2023-08-07T01:47:03;10.90;99.90
16829;DHT22;8531;48.078;11.968;2023-08-07T01:49:29;10.90;99.90
16829;DHT22;8531;48.078;11.968;2023-08-07T01:51:55;10.90;99.90
16829;DHT22;8531;48.078;11.968;2023-08-07T01:54:21;10.90;99.90
16829;DHT22;8531;48.078;11.968;2023-08-07T01:56:46;10.90;99.90
16829;DHT22;8531;48.078;11.968;2023-08-07T01:59:12;10.90;99.90
16829;DHT22;8531;48.078;11.968;2023-08-07T02:01:37;10.90;99.90
16829;DHT22;8531;48.078;11.968;2023-08-07T02:04:03;10.90;99.90
16829;DHT22;8531;48.078;11.968;2023-08-07T02:06:29;10.80;99.90
16829;DHT22;8531;48.078;11.968;2023-08-07T02:08:55;10.80;99.90
16829;DHT22;8531;48.078;11.968;2023-08-07T02:11:20;10.80;99.90
16829;DHT22;8531;48.078;11.968;2023-08-07T02:13:46;10.70;99.90
16829;DHT22;8531;48.078;11.968;2023-08-07T02:16:12;10.70;99.90
16829;DHT22;8531;48.078;11.968;2023-08-07T02:18:37;10.70;99.90
16829;DHT22;8531;48.078;11.968;2023-08-07T02:21:03;10.70;99.90
16829;DHT22;8531;48.078;11.968;2023-08-07T02:23:28;10.60;99.90
16829;DHT22;8531;48.078;11.968;2023-08-07T02:25:54;10.60;99.90
16829;DHT22;8531;48.078;11.968;2023-08-07T02:28:20;10.60;99.90
16829;DHT22;8531;48.078;11.968;2023-08-07T02:30:46;10.60;99.90
16829;DHT22;8531;48.078;11.968;2023-08-07T02:33:14;10.50;99.90
16829;DHT22;8531;48.078;11.968;2023-08-07T02:35:40;10.50;99.90
16829;DHT22;8531;48.078;11.968;2023-08-07T02:38:05;10.50;99.90
16829;DHT22;8531;48.078;11.968;2023-08-07T02:40:31;10.50;99.90
16829;DHT22;8531;48.078;11.968;2023-08-07T02:42:57;10.50;99.90
16829;DHT22;8531;48.078;11.968;2023-08-07T02:45:22;10.50;99.90
16829;DHT22;8531;48.078;11.968;2023-08-07T02:47:48;10.50;99.90
16829;DHT22;8531;48.078;11.968;2023-08-07T02:50:14;10.50;99.90
16829;DHT22;8531;48.078;11.968;2023-08-07T02:52:39;10.50;99.90
16829;DHT22;8531;48.078;11.968;2023-08-07T02:55:05;10.50;99.90
16829;DHT22;8531;48.078;11.968;2023-08-07T02:57:31;10.50;99.90
16829;DHT22;8531;48.078;11.968;2023-08-07T02:59:56;10.40;99.90
16829;DHT22;8531;48.078;11.968;2023-08-07T03:02:22;10.40;99.90
16829;DHT22;8531;48.078;11.968;2023-08-07T03:04:48;10.50;99.90
16829;DHT22;8531;48.078;11.968;2023-08-07T03:07:13;10.40;99.90
16829;DHT22;8531;48.078;11.968;2023-08-07T03:09:39;10.40;99.90
16829;DHT22;8531;48.078;11.968;2023-08-07T03:12:05;10.50;99.90
16829;DHT22;8531;48.078;11.968;2023-08-07T03:14:31;10.50;99.90
16829;DHT22;8531;48.078;11.968;2023-08-07T03:16:57;10.50;99.90
16829;DHT22;8531;48.078;11.968;2023-08-07T03:19:22;10.50;99.90
16829;DHT22;8531;48.078;11.968;2023-08-07T03:21:49;10.50;99.90
16829;DHT22;8531;48.078;11.968;2023-08-07T03:24:14;10.50;99.90
16829;DHT22;8531;48.078;11.968;2023-08-07T03:26:40;10.50;99.90
16829;DHT22;8531;48.078;11.968;2023-08-07T03:29:06;10.50;99.90
16829;DHT22;8531;48.078;11.968;2023-08-07T03:31:32;10.50;99.90
16829;DHT22;8531;48.078;11.968;2023-08-07T03:33:57;10.50;99.90
16829;DHT22;8531;48.078;11.968;2023-08-07T03:36:23;10.50;99.90
16829;DHT22;8531;48.078;11.968;2023-08-07T03:38:49;10.50;99.90
16829;DHT22;8531;48.078;11.968;2023-08-07T03:41:15;10.50;99.90
16829;DHT22;8531;48.078;11.968;2023-08-07T03:43:40;10.50;99.90
16829;DHT22;8531;48.078;11.968;2023-08-07T03:46:06;10.50;99.90
16829;DHT22;8531;48.078;11.968;2023-08-07T03:48:32;10.50;99.90
16829;DHT22;8531;48.078;11.968;2023-08-07T03:51:04;10.50;99.90
16829;DHT22;8531;48.078;11.968;2023-08-07T03:53:30;10.50;99.90
16829;DHT22;8531;48.078;11.968;2023-08-07T03:55:56;10.60;99.90
16829;DHT22;8531;48.078;11.968;2023-08-07T03:58:22;10.60;99.90
16829;DHT22;8531;48.078;11.968;2023-08-07T04:00:47;10.60;99.90
16829;DHT22;8531;48.078;11.968;2023-08-07T04:03:13;10.60;99.90
16829;DHT22;8531;48.078;11.968;2023-08-07T04:05:38;10.60;99.90
16829;DHT22;8531;48.078;11.968;2023-08-07T04:08:04;10.60;99.90
16829;DHT22;8531;48.078;11.968;2023-08-07T04:10:30;10.60;99.90
16829;DHT22;8531;48.078;11.968;2023-08-07T04:12:55;10.60;99.90
16829;DHT22;8531;48.078;11.968;2023-08-07T04:15:21;10.60;99.90
16829;DHT22;8531;48.078;11.968;2023-08-07T04:17:47;10.60;99.90
16829;DHT22;8531;48.078;11.968;2023-08-07T04:20:12;10.60;99.90
16829;DHT22;8531;48.078;11.968;2023-08-07T04:22:38;10.60;99.90
16829;DHT22;8531;48.078;11.968;2023-08-07T04:25:04;10.60;99.90
16829;DHT22;8531;48.078;11.968;2023-08-07T04:27:30;10.70;99.90
16829;DHT22;8531;48.078;11.968;2023-08-07T04:29:55;10.70;99.90
16829;DHT22;8531;48.078;11.968;2023-08-07T04:32:21;10.70;99.90
16829;DHT22;8531;48.078;11.968;2023-08-07T04:34:47;10.70;99.90
16829;DHT22;8531;48.078;11.968;2023-08-07T04:37:12;10.70;99.90
16829;DHT22;8531;48.078;11.968;2023-08-07T04:39:38;10.70;99.90
16829;DHT22;8531;48.078;11.968;2023-08-07T04:42:04;10.70;99.90
16829;DHT22;8531;48.078;11.968;2023-08-07T04:44:30;10.70;99.90
16829;DHT22;8531;48.078;11.968;2023-08-07T04:46:55;10.70;99.90
16829;DHT22;8531;48.078;11.968;2023-08-07T04:49:21;10.70;99.90
16829;DHT22;8531;48.078;11.968;2023-08-07T04:51:47;10.80;99.90
16829;DHT22;8531;48.078;11.968;2023-08-07T04:54:12;10.70;99.90
16829;DHT22;8531;48.078;11.968;2023-08-07T04:56:38;10.80;99.90
16829;DHT22;8531;48.078;11.968;2023-08-07T04:59:03;10.80;99.90
16829;DHT22;8531;48.078;11.968;2023-08-07T05:01:29;10.80;99.90
16829;DHT22;8531;48.078;11.968;2023-08-07T05:03:55;10.80;99.90
16829;DHT22;8531;48.078;11.968;2023-08-07T05:06:20;10.80;99.90
16829;DHT22;8531;48.078;11.968;2023-08-07T05:08:46;10.80;99.90
16829;DHT22;8531;48.078;11.968;2023-08-07T05:11:12;10.90;99.90
16829;DHT22;8531;48.078;11.968;2023-08-07T05:13:37;10.90;99.90
16829;DHT22;8531;48.078;11.968;2023-08-07T05:16:03;11.00;99.90
16829;DHT22;8531;48.078;11.968;2023-08-07T05:18:29;11.00;99.90
16829;DHT22;8531;48.078;11.968;2023-08-07T05:20:54;11.00;99.90
16829;DHT22;8531;48.078;11.968;2023-08-07T05:23:20;11.00;99.90
16829;DHT22;8531;48.078;11.968;2023-08-07T05:25:46;11.00;99.90
16829;DHT22;8531;48.078;11.968;2023-08-07T05:28:12;11.00;99.90
16829;DHT22;8531;48.078;11.968;2023-08-07T05:30:38;11.00;99.90
16829;DHT22;8531;48.078;11.968;2023-08-07T05:33:03;11.00;99.90
16829;DHT22;8531;48.078;11.968;2023-08-07T05:35:29;11.00;99.90
16829;DHT22;8531;48.078;11.968;2023-08-07T05:37:55;11.10;99.90
16829;DHT22;8531;48.078;11.968;2023-08-07T05:40:20;11.10;99.90
16829;DHT22;8531;48.078;11.968;2023-08-07T05:42:46;11.10;99.90
16829;DHT22;8531;48.078;11.968;2023-08-07T05:45:12;11.20;99.90
16829;DHT22;8531;48.078;11.968;2023-08-07T05:47:37;11.20;99.90
16829;DHT22;8531;48.078;11.968;2023-08-07T05:50:03;11.20;99.90
16829;DHT22;8531;48.078;11.968;2023-08-07T05:52:29;11.20;99.90
16829;DHT22;8531;48.078;11.968;2023-08-07T05:54:55;11.20;99.90
16829;DHT22;8531;48.078;11.968;2023-08-07T05:57:20;11.20;99.90
16829;DHT22;8531;48.078;11.968;2023-08-07T05:59:46;11.20;99.90
16829;DHT22;8531;48.078;11.968;2023-08-07T06:02:12;11.20;99.90
16829;DHT22;8531;48.078;11.968;2023-08-07T06:04:38;11.30;99.90
16829;DHT22;8531;48.078;11.968;2023-08-07T06:07:05;11.30;99.90
16829;DHT22;8531;48.078;11.968;2023-08-07T06:09:31;11.30;99.90
16829;DHT22;8531;48.078;11.968;2023-08-07T06:11:57;11.30;99.90
16829;DHT22;8531;48.078;11.968;2023-08-07T06:14:22;11.30;99.90
16829;DHT22;8531;48.078;11.968;2023-08-07T06:16:51;11.30;99.90
16829;DHT22;8531;48.078;11.968;2023-08-07T06:19:16;11.20;99.90
16829;DHT22;8531;48.078;11.968;2023-08-07T06:21:43;11.30;99.90
16829;DHT22;8531;48.078;11.968;2023-08-07T06:24:08;11.30;99.90
16829;DHT22;8531;48.078;11.968;2023-08-07T06:26:34;11.30;99.90
16829;DHT22;8531;48.078;11.968;2023-08-07T06:29:00;11.30;99.90
16829;DHT22;8531;48.078;11.968;2023-08-07T06:31:26;11.30;99.90
16829;DHT22;8531;48.078;11.968;2023-08-07T06:33:51;11.40;99.90
16829;DHT22;8531;48.078;11.968;2023-08-07T06:36:17;11.40;99.90
16829;DHT22;8531;48.078;11.968;2023-08-07T06:38:43;11.40;99.90
16829;DHT22;8531;48.078;11.968;2023-08-07T06:41:09;11.40;99.90
16829;DHT22;8531;48.078;11.968;2023-08-07T06:43:34;11.40;99.90
16829;DHT22;8531;48.078;11.968;2023-08-07T06:46:01;11.50;99.90
16829;DHT22;8531;48.078;11.968;2023-08-07T06:48:28;11.50;99.90
16829;DHT22;8531;48.078;11.968;2023-08-07T06:50:53;11.50;99.90
16829;DHT22;8531;48.078;11.968;2023-08-07T06:53:19;11.60;99.90
16829;DHT22;8531;48.078;11.968;2023-08-07T06:55:45;11.70;99.90
16829;DHT22;8531;48.078;11.968;2023-08-07T06:58:11;11.70;99.90
16829;DHT22;8531;48.078;11.968;2023-08-07T07:00:37;11.80;99.90
16829;DHT22;8531;48.078;11.968;2023-08-07T07:03:03;11.80;99.90
16829;DHT22;8531;48.078;11.968;2023-08-07T07:05:30;11.90;99.90
16829;DHT22;8531;48.078;11.968;2023-08-07T07:07:57;11.80;99.90
16829;DHT22;8531;48.078;11.968;2023-08-07T07:10:22;11.90;99.90
16829;DHT22;8531;48.078;11.968;2023-08-07T07:12:48;12.00;99.90
16829;DHT22;8531;48.078;11.968;2023-08-07T07:15:14;12.10;99.90
16829;DHT22;8531;48.078;11.968;2023-08-07T07:17:39;12.30;99.90
16829;DHT22;8531;48.078;11.968;2023-08-07T07:20:06;12.40;99.90
16829;DHT22;8531;48.078;11.968;2023-08-07T07:22:31;12.50;99.90
16829;DHT22;8531;48.078;11.968;2023-08-07T07:24:57;12.50;99.90
16829;DHT22;8531;48.078;11.968;2023-08-07T07:27:23;12.50;99.90
16829;DHT22;8531;48.078;11.968;2023-08-07T07:29:51;12.50;99.90
16829;DHT22;8531;48.078;11.968;2023-08-07T07:32:17;12.50;99.90
16829;DHT22;8531;48.078;11.968;2023-08-07T07:34:43;12.60;99.90
16829;DHT22;8531;48.078;11.968;2023-08-07T07:37:10;12.70;99.90
16829;DHT22;8531;48.078;11.968;2023-08-07T07:39:36;12.80;99.90
16829;DHT22;8531;48.078;11.968;2023-08-07T07:42:02;12.80;99.90
16829;DHT22;8531;48.078;11.968;2023-08-07T07:44:28;12.90;99.90
16829;DHT22;8531;48.078;11.968;2023-08-07T07:46:54;13.00;99.90
16829;DHT22;8531;48.078;11.968;2023-08-07T07:49:20;13.10;99.90
16829;DHT22;8531;48.078;11.968;2023-08-07T07:51:46;13.20;99.90
16829;DHT22;8531;48.078;11.968;2023-08-07T07:54:11;13.30;99.90
16829;DHT22;8531;48.078;11.968;2023-08-07T07:56:37;13.30;99.90
16829;DHT22;8531;48.078;11.968;2023-08-07T07:59:03;13.50;99.90
16829;DHT22;8531;48.078;11.968;2023-08-07T08:01:28;13.50;99.90
16829;DHT22;8531;48.078;11.968;2023-08-07T08:03:54;13.50;99.90
16829;DHT22;8531;48.078;11.968;2023-08-07T08:06:20;13.50;99.90
16829;DHT22;8531;48.078;11.968;2023-08-07T08:08:46;13.60;99.90
16829;DHT22;8531;48.078;11.968;2023-08-07T08:11:12;13.60;99.90
16829;DHT22;8531;48.078;11.968;2023-08-07T08:13:37;13.60;99.90
16829;DHT22;8531;48.078;11.968;2023-08-07T08:16:04;13.60;99.90
16829;DHT22;8531;48.078;11.968;2023-08-07T08:18:30;13.50;99.90
16829;DHT22;8531;48.078;11.968;2023-08-07T08:20:56;13.40;99.90
16829;DHT22;8531;48.078;11.968;2023-08-07T08:23:22;13.50;99.90
16829;DHT22;8531;48.078;11.968;2023-08-07T08:25:48;13.50;99.90
16829;DHT22;8531;48.078;11.968;2023-08-07T08:28:14;13.40;99.90
16829;DHT22;8531;48.078;11.968;2023-08-07T08:30:41;13.40;99.90
16829;DHT22;8531;48.078;11.968;2023-08-07T08:33:09;13.40;99.90
16829;DHT22;8531;48.078;11.968;2023-08-07T08:35:37;13.40;99.90
16829;DHT22;8531;48.078;11.968;2023-08-07T08:38:03;13.40;99.90
16829;DHT22;8531;48.078;11.968;2023-08-07T08:40:33;13.40;99.90
16829;DHT22;8531;48.078;11.968;2023-08-07T08:43:00;13.40;99.90
16829;DHT22;8531;48.078;11.968;2023-08-07T08:45:27;13.40;99.90
16829;DHT22;8531;48.078;11.968;2023-08-07T08:47:55;13.40;99.90
16829;DHT22;8531;48.078;11.968;2023-08-07T08:50:23;13.40;99.90
16829;DHT22;8531;48.078;11.968;2023-08-07T08:52:51;13.40;99.90
16829;DHT22;8531;48.078;11.968;2023-08-07T08:55:20;13.30;99.90
16829;DHT22;8531;48.078;11.968;2023-08-07T08:57:46;13.40;99.90
16829;DHT22;8531;48.078;11.968;2023-08-07T09:00:14;13.50;99.90
16829;DHT22;8531;48.078;11.968;2023-08-07T09:02:49;13.50;99.90
16829;DHT22;8531;48.078;11.968;2023-08-07T09:05:16;13.60;99.90
16829;DHT22;8531;48.078;11.968;2023-08-07T09:07:43;13.70;99.90
16829;DHT22;8531;48.078;11.968;2023-08-07T09:10:13;13.70;99.90
16829;DHT22;8531;48.078;11.968;2023-08-07T09:12:41;13.70;99.90
16829;DHT22;8531;48.078;11.968;2023-08-07T09:15:09;13.80;99.90
16829;DHT22;8531;48.078;11.968;2023-08-07T09:17:39;13.90;99.90
16829;DHT22;8531;48.078;11.968;2023-08-07T09:20:06;14.00;99.90
16829;DHT22;8531;48.078;11.968;2023-08-07T09:22:36;14.10;99.90
16829;DHT22;8531;48.078;11.968;2023-08-07T09:25:02;14.20;99.90
16829;DHT22;8531;48.078;11.968;2023-08-07T09:27:28;14.20;99.90
16829;DHT22;8531;48.078;11.968;2023-08-07T09:29:55;14.20;99.90
16829;DHT22;8531;48.078;11.968;2023-08-07T09:32:22;14.20;99.90
16829;DHT22;8531;48.078;11.968;2023-08-07T09:34:50;14.20;99.90
16829;DHT22;8531;48.078;11.968;2023-08-07T09:37:17;14.40;99.90
16829;DHT22;8531;48.078;11.968;2023-08-07T09:39:43;14.50;99.90
16829;DHT22;8531;48.078;11.968;2023-08-07T09:42:15;14.50;99.90
16829;DHT22;8531;48.078;11.968;2023-08-07T09:44:42;14.50;99.90
16829;DHT22;8531;48.078;11.968;2023-08-07T09:47:18;14.50;99.90
16829;DHT22;8531;48.078;11.968;2023-08-07T09:49:45;14.50;99.90
16829;DHT22;8531;48.078;11.968;2023-08-07T09:52:13;14.60;99.90
16829;DHT22;8531;48.078;11.968;2023-08-07T09:54:40;14.60;99.90
16829;DHT22;8531;48.078;11.968;2023-08-07T09:57:06;14.60;99.90
16829;DHT22;8531;48.078;11.968;2023-08-07T09:59:35;14.60;99.90
16829;DHT22;8531;48.078;11.968;2023-08-07T10:02:02;14.70;99.90
16829;DHT22;8531;48.078;11.968;2023-08-07T10:04:28;14.60;99.90
16829;DHT22;8531;48.078;11.968;2023-08-07T10:06:54;14.70;99.90
16829;DHT22;8531;48.078;11.968;2023-08-07T10:09:20;14.70;99.90
16829;DHT22;8531;48.078;11.968;2023-08-07T10:11:46;14.70;99.90
16829;DHT22;8531;48.078;11.968;2023-08-07T10:14:13;14.80;99.90
16829;DHT22;8531;48.078;11.968;2023-08-07T10:16:40;15.00;99.90
16829;DHT22;8531;48.078;11.968;2023-08-07T10:19:07;15.00;99.90
16829;DHT22;8531;48.078;11.968;2023-08-07T10:21:35;15.10;99.90
16829;DHT22;8531;48.078;11.968;2023-08-07T10:24:04;15.30;99.90
16829;DHT22;8531;48.078;11.968;2023-08-07T10:26:35;15.60;99.90
16829;DHT22;8531;48.078;11.968;2023-08-07T10:29:02;15.60;99.90
16829;DHT22;8531;48.078;11.968;2023-08-07T10:31:29;15.70;99.90
16829;DHT22;8531;48.078;11.968;2023-08-07T10:33:55;15.90;99.90
16829;DHT22;8531;48.078;11.968;2023-08-07T10:36:21;16.00;99.90
16829;DHT22;8531;48.078;11.968;2023-08-07T10:38:50;16.00;99.90
16829;DHT22;8531;48.078;11.968;2023-08-07T10:41:19;16.00;99.90
16829;DHT22;8531;48.078;11.968;2023-08-07T10:43:45;16.00;99.90
16829;DHT22;8531;48.078;11.968;2023-08-07T10:46:17;16.10;99.90
16829;DHT22;8531;48.078;11.968;2023-08-07T10:48:46;16.00;99.90
16829;DHT22;8531;48.078;11.968;2023-08-07T10:51:18;16.10;99.90
16829;DHT22;8531;48.078;11.968;2023-08-07T10:53:48;16.20;99.90
16829;DHT22;8531;48.078;11.968;2023-08-07T10:56:30;16.40;99.90
16829;DHT22;8531;48.078;11.968;2023-08-07T10:58:57;16.40;99.90
16829;DHT22;8531;48.078;11.968;2023-08-07T11:04:14;16.30;99.90
16829;DHT22;8531;48.078;11.968;2023-08-07T11:06:41;16.30;99.90
16829;DHT22;8531;48.078;11.968;2023-08-07T11:09:08;16.10;99.90
16829;DHT22;8531;48.078;11.968;2023-08-07T11:11:37;16.00;99.90
16829;DHT22;8531;48.078;11.968;2023-08-07T11:14:06;16.00;99.90
16829;DHT22;8531;48.078;11.968;2023-08-07T11:16:33;16.00;99.90
16829;DHT22;8531;48.078;11.968;2023-08-07T11:19:00;16.00;99.90
16829;DHT22;8531;48.078;11.968;2023-08-07T11:21:25;16.10;99.90
16829;DHT22;8531;48.078;11.968;2023-08-07T11:23:51;16.40;99.90
16829;DHT22;8531;48.078;11.968;2023-08-07T11:26:17;16.50;99.90
16829;DHT22;8531;48.078;11.968;2023-08-07T11:28:47;16.70;99.90
16829;DHT22;8531;48.078;11.968;2023-08-07T11:31:13;16.50;99.90
16829;DHT22;8531;48.078;11.968;2023-08-07T11:33:40;16.50;99.90
16829;DHT22;8531;48.078;11.968;2023-08-07T11:36:13;16.50;99.90
16829;DHT22;8531;48.078;11.968;2023-08-07T11:38:41;16.60;99.90
16829;DHT22;8531;48.078;11.968;2023-08-07T11:41:15;16.80;99.90
16829;DHT22;8531;48.078;11.968;2023-08-07T11:43:41;17.00;99.90
16829;DHT22;8531;48.078;11.968;2023-08-07T11:46:08;17.30;99.90
16829;DHT22;8531;48.078;11.968;2023-08-07T11:48:36;17.20;99.90
16829;DHT22;8531;48.078;11.968;2023-08-07T11:51:03;17.00;99.90
16829;DHT22;8531;48.078;11.968;2023-08-07T11:53:30;16.90;99.90
16829;DHT22;8531;48.078;11.968;2023-08-07T11:55:59;17.00;99.90
16829;DHT22;8531;48.078;11.968;2023-08-07T11:58:27;17.00;99.90
16829;DHT22;8531;48.078;11.968;2023-08-07T12:00:54;17.00;99.90
16829;DHT22;8531;48.078;11.968;2023-08-07T12:03:35;16.90;99.90
16829;DHT22;8531;48.078;11.968;2023-08-07T12:06:03;16.80;99.90
16829;DHT22;8531;48.078;11.968;2023-08-07T12:08:34;16.80;99.90
16829;DHT22;8531;48.078;11.968;2023-08-07T12:11:02;16.90;99.90
16829;DHT22;8531;48.078;11.968;2023-08-07T12:13:29;16.80;99.90
16829;DHT22;8531;48.078;11.968;2023-08-07T12:15:56;16.70;99.90
16829;DHT22;8531;48.078;11.968;2023-08-07T12:18:23;16.50;99.90
16829;DHT22;8531;48.078;11.968;2023-08-07T12:20:50;16.40;99.90
16829;DHT22;8531;48.078;11.968;2023-08-07T12:23:17;16.20;99.90
16829;DHT22;8531;48.078;11.968;2023-08-07T12:25:43;15.90;99.90
16829;DHT22;8531;48.078;11.968;2023-08-07T12:28:09;15.80;99.90
16829;DHT22;8531;48.078;11.968;2023-08-07T12:30:35;16.00;99.90
16829;DHT22;8531;48.078;11.968;2023-08-07T12:33:01;16.20;99.90
16829;DHT22;8531;48.078;11.968;2023-08-07T12:35:30;16.40;99.90
16829;DHT22;8531;48.078;11.968;2023-08-07T12:37:57;16.50;99.90
16829;DHT22;8531;48.078;11.968;2023-08-07T12:40:23;16.70;99.90
16829;DHT22;8531;48.078;11.968;2023-08-07T12:42:51;16.70;99.90
16829;DHT22;8531;48.078;11.968;2023-08-07T12:45:17;16.60;99.90
16829;DHT22;8531;48.078;11.968;2023-08-07T12:47:45;16.50;99.90
16829;DHT22;8531;48.078;11.968;2023-08-07T12:50:11;16.30;99.90
16829;DHT22;8531;48.078;11.968;2023-08-07T12:52:36;16.20;99.90
16829;DHT22;8531;48.078;11.968;2023-08-07T12:55:02;16.20;99.90
16829;DHT22;8531;48.078;11.968;2023-08-07T12:57:29;16.20;99.90
16829;DHT22;8531;48.078;11.968;2023-08-07T12:59:55;16.30;99.90
16829;DHT22;8531;48.078;11.968;2023-08-07T13:02:20;16.40;99.90
16829;DHT22;8531;48.078;11.968;2023-08-07T13:04:46;16.90;99.90
16829;DHT22;8531;48.078;11.968;2023-08-07T13:07:12;17.40;99.90
16829;DHT22;8531;48.078;11.968;2023-08-07T13:09:37;17.80;99.90
16829;DHT22;8531;48.078;11.968;2023-08-07T13:12:04;18.00;99.90
16829;DHT22;8531;48.078;11.968;2023-08-07T13:14:30;18.00;99.90
16829;DHT22;8531;48.078;11.968;2023-08-07T13:16:55;18.00;99.90
16829;DHT22;8531;48.078;11.968;2023-08-07T13:19:21;18.00;99.90
16829;DHT22;8531;48.078;11.968;2023-08-07T13:21:47;17.90;99.90
16829;DHT22;8531;48.078;11.968;2023-08-07T13:24:12;17.80;99.90
16829;DHT22;8531;48.078;11.968;2023-08-07T13:26:38;17.60;99.90
16829;DHT22;8531;48.078;11.968;2023-08-07T13:29:10;17.70;99.90
16829;DHT22;8531;48.078;11.968;2023-08-07T13:31:36;17.50;99.90
16829;DHT22;8531;48.078;11.968;2023-08-07T13:34:02;17.30;99.90
16829;DHT22;8531;48.078;11.968;2023-08-07T13:36:36;17.10;99.90
16829;DHT22;8531;48.078;11.968;2023-08-07T13:39:02;17.10;99.90
16829;DHT22;8531;48.078;11.968;2023-08-07T13:41:28;17.20;99.90
16829;DHT22;8531;48.078;11.968;2023-08-07T13:43:53;17.20;99.90
16829;DHT22;8531;48.078;11.968;2023-08-07T13:46:19;17.30;99.90
16829;DHT22;8531;48.078;11.968;2023-08-07T13:48:45;17.40;99.90
16829;DHT22;8531;48.078;11.968;2023-08-07T13:51:11;17.40;99.90
16829;DHT22;8531;48.078;11.968;2023-08-07T13:53:37;17.30;99.90
16829;DHT22;8531;48.078;11.968;2023-08-07T13:56:03;17.40;99.90
16829;DHT22;8531;48.078;11.968;2023-08-07T13:58:29;17.40;99.90
16829;DHT22;8531;48.078;11.968;2023-08-07T14:00:55;17.40;99.90
16829;DHT22;8531;48.078;11.968;2023-08-07T14:03:22;17.40;99.90
16829;DHT22;8531;48.078;11.968;2023-08-07T14:05:48;17.30;99.90
16829;DHT22;8531;48.078;11.968;2023-08-07T14:08:14;17.20;99.90
16829;DHT22;8531;48.078;11.968;2023-08-07T14:10:40;17.00;99.90
16829;DHT22;8531;48.078;11.968;2023-08-07T14:13:06;16.90;99.90
16829;DHT22;8531;48.078;11.968;2023-08-07T14:15:32;16.80;99.90
16829;DHT22;8531;48.078;11.968;2023-08-07T14:17:58;16.80;99.90
16829;DHT22;8531;48.078;11.968;2023-08-07T14:20:25;16.80;99.90
16829;DHT22;8531;48.078;11.968;2023-08-07T14:22:51;16.80;99.90
16829;DHT22;8531;48.078;11.968;2023-08-07T14:25:16;16.80;99.90
16829;DHT22;8531;48.078;11.968;2023-08-07T14:27:42;16.80;99.90
16829;DHT22;8531;48.078;11.968;2023-08-07T14:30:08;17.00;99.90
16829;DHT22;8531;48.078;11.968;2023-08-07T14:32:34;16.80;99.90
16829;DHT22;8531;48.078;11.968;2023-08-07T14:34:59;16.80;99.90
16829;DHT22;8531;48.078;11.968;2023-08-07T14:37:25;16.70;99.90
16829;DHT22;8531;48.078;11.968;2023-08-07T14:39:51;16.60;99.90
16829;DHT22;8531;48.078;11.968;2023-08-07T14:42:17;16.40;99.90
16829;DHT22;8531;48.078;11.968;2023-08-07T14:44:42;16.30;99.90
16829;DHT22;8531;48.078;11.968;2023-08-07T14:47:08;16.30;99.90
16829;DHT22;8531;48.078;11.968;2023-08-07T14:49:34;16.40;99.90
16829;DHT22;8531;48.078;11.968;2023-08-07T14:51:59;16.70;99.90
16829;DHT22;8531;48.078;11.968;2023-08-07T14:54:25;16.90;99.90
16829;DHT22;8531;48.078;11.968;2023-08-07T14:56:51;17.00;99.90
16829;DHT22;8531;48.078;11.968;2023-08-07T14:59:17;16.90;99.90
16829;DHT22;8531;48.078;11.968;2023-08-07T15:01:42;16.80;99.90
16829;DHT22;8531;48.078;11.968;2023-08-07T15:04:08;16.70;99.90
16829;DHT22;8531;48.078;11.968;2023-08-07T15:06:35;16.50;99.90
16829;DHT22;8531;48.078;11.968;2023-08-07T15:09:01;16.50;99.90
16829;DHT22;8531;48.078;11.968;2023-08-07T15:11:26;16.40;99.90
16829;DHT22;8531;48.078;11.968;2023-08-07T15:13:52;16.30;99.90
16829;DHT22;8531;48.078;11.968;2023-08-07T15:16:18;16.20;99.90
16829;DHT22;8531;48.078;11.968;2023-08-07T15:18:44;16.10;99.90
16829;DHT22;8531;48.078;11.968;2023-08-07T15:21:10;16.10;99.90
16829;DHT22;8531;48.078;11.968;2023-08-07T15:23:36;16.10;99.90
16829;DHT22;8531;48.078;11.968;2023-08-07T15:26:02;16.00;99.90
16829;DHT22;8531;48.078;11.968;2023-08-07T15:28:28;15.90;99.90
16829;DHT22;8531;48.078;11.968;2023-08-07T15:30:54;15.90;99.90
16829;DHT22;8531;48.078;11.968;2023-08-07T15:33:19;15.80;99.90